Time;durP1;ratioP1;P1;durP2;ratioP2;P2;SDS_P1;SDS_P2;PMS_P1;PMS_P2;Temp;Humidity;BMP_temperature;BMP_pressure;BME280_temperature;BME280_humidity;BME280_pressure;Samples;Min_cycle;Max_cycle;Signal;HPM_P1;HPM_P2
2021/07/30 00:02:19;;;;;;;;;12.75;9.50;;;;;18.46;68.60;100877.16;5074992;27;54739;-71
2021/07/30 00:04:44;;;;;;;;;12.75;10.75;;;;;18.45;68.29;100877.28;5075922;27;46110;-71
2021/07/30 00:07:10;;;;;;;;;9.25;9.00;;;;;18.33;68.86;100859.56;5076401;28;45429;-71
2021/07/30 00:09:35;;;;;;;;;10.00;9.25;;;;;18.39;68.70;100872.41;5076703;27;45442;-71
2021/07/30 00:12:00;;;;;;;;;9.00;9.00;;;;;18.36;69.16;100870.81;5074717;27;46294;-70
2021/07/30 00:14:26;;;;;;;;;9.50;9.00;;;;;18.26;68.98;100851.16;5072746;27;53453;-71
2021/07/30 00:16:51;;;;;;;;;10.00;9.25;;;;;18.31;69.54;100862.31;5075805;28;45588;-71
2021/07/30 00:19:16;;;;;;;;;13.75;11.75;;;;;18.27;69.00;100863.53;5076034;28;45522;-71
2021/07/30 00:21:42;;;;;;;;;11.00;9.00;;;;;18.28;69.19;100865.22;5076509;27;48136;-71
2021/07/30 00:24:07;;;;;;;;;10.00;10.00;;;;;18.23;69.54;100864.72;5075864;28;52992;-71
2021/07/30 00:26:32;;;;;;;;;9.00;9.00;;;;;18.23;69.98;100856.72;5075112;28;52512;-71
2021/07/30 00:28:57;;;;;;;;;9.00;9.00;;;;;18.20;70.01;100857.78;5075303;28;45469;-71
2021/07/30 00:31:23;;;;;;;;;10.50;9.25;;;;;18.17;69.67;100860.69;5074852;27;63918;-71
2021/07/30 00:33:48;;;;;;;;;12.00;10.75;;;;;18.14;69.97;100852.91;5076186;27;45320;-71
2021/07/30 00:36:14;;;;;;;;;7.75;7.75;;;;;18.12;70.05;100852.19;5075191;27;45512;-71
2021/07/30 00:38:40;;;;;;;;;12.50;11.50;;;;;18.08;70.17;100845.38;5075747;28;45397;-71
2021/07/30 00:41:05;;;;;;;;;10.75;9.25;;;;;18.09;70.33;100846.22;5074654;28;45424;-71
2021/07/30 00:43:30;;;;;;;;;11.25;10.25;;;;;18.09;70.44;100847.09;5075547;27;45397;-71
2021/07/30 00:45:58;;;;;;;;;13.25;9.00;;;;;18.08;70.68;100848.06;5075095;27;46660;-71
2021/07/30 00:48:24;;;;;;;;;14.25;10.00;;;;;18.04;70.43;100846.56;5077536;27;45397;-70
2021/07/30 00:50:50;;;;;;;;;10.75;9.00;;;;;18.03;70.74;100839.56;5075060;27;45606;-71
2021/07/30 00:53:17;;;;;;;;;11.00;9.25;;;;;18.00;70.59;100843.28;5073672;27;45518;-71
2021/07/30 00:55:43;;;;;;;;;11.75;8.75;;;;;17.98;70.41;100847.84;5073750;27;45308;-71
2021/07/30 00:58:10;;;;;;;;;12.00;7.75;;;;;17.96;70.62;100844.47;5075333;28;45359;-72
2021/07/30 01:00:35;;;;;;;;;11.25;10.00;;;;;17.94;70.95;100838.41;5076893;27;45395;-71
2021/07/30 01:03:00;;;;;;;;;8.00;8.00;;;;;17.94;71.01;100833.09;5074025;28;45486;-70
2021/07/30 01:05:30;;;;;;;;;10.75;7.75;;;;;17.92;71.06;100829.69;5075233;28;45460;-71
2021/07/30 01:07:56;;;;;;;;;9.75;9.75;;;;;17.94;70.78;100834.88;5074943;27;45405;-71
2021/07/30 01:10:22;;;;;;;;;11.00;10.00;;;;;17.90;70.59;100823.63;5073972;27;46709;-71
2021/07/30 01:12:47;;;;;;;;;9.50;9.00;;;;;17.91;70.52;100835.97;5075806;27;45497;-71
2021/07/30 01:15:13;;;;;;;;;8.00;8.00;;;;;17.90;70.56;100826.28;5074450;27;45536;-71
2021/07/30 01:17:38;;;;;;;;;10.50;8.50;;;;;17.88;70.33;100822.91;5074684;27;45559;-71
2021/07/30 01:20:04;;;;;;;;;10.25;8.50;;;;;17.84;70.93;100818.75;5075003;27;46413;-71
2021/07/30 01:22:57;;;;;;;;;10.50;8.75;;;;;17.86;71.05;100823.97;5074681;27;45594;-71
2021/07/30 01:25:23;;;;;;;;;10.00;9.00;;;;;17.84;70.94;100824.06;5052934;27;45311;-72
2021/07/30 01:27:50;;;;;;;;;8.25;7.75;;;;;17.81;71.19;100820.81;5075116;27;45302;-70
2021/07/30 01:30:17;;;;;;;;;11.50;7.00;;;;;17.79;71.03;100822.69;5074379;28;46535;-71
2021/07/30 01:32:43;;;;;;;;;7.75;6.50;;;;;17.73;71.56;100819.53;5074677;27;45417;-71
2021/07/30 01:35:09;;;;;;;;;11.00;9.25;;;;;17.71;71.08;100812.59;5074457;28;45435;-71
2021/07/30 01:37:34;;;;;;;;;9.00;9.00;;;;;17.69;71.84;100814.50;5074575;27;45430;-70
2021/07/30 01:40:00;;;;;;;;;10.25;8.00;;;;;17.65;71.55;100805.06;5073657;27;46233;-71
2021/07/30 01:42:26;;;;;;;;;8.75;7.25;;;;;17.69;71.49;100810.03;5092459;27;45418;-71
2021/07/30 01:44:51;;;;;;;;;5.25;5.00;;;;;17.67;71.43;100809.31;5074545;27;45699;-71
2021/07/30 01:47:19;;;;;;;;;9.00;7.00;;;;;17.66;71.73;100804.94;5074032;27;45522;-70
2021/07/30 01:49:45;;;;;;;;;14.00;7.25;;;;;17.67;71.37;100808.44;5074168;27;45398;-71
2021/07/30 01:52:10;;;;;;;;;7.75;7.00;;;;;17.64;72.07;100803.34;5072771;28;45383;-71
2021/07/30 01:54:36;;;;;;;;;8.75;6.25;;;;;17.65;71.77;100805.06;5075226;27;51650;-71
2021/07/30 01:57:01;;;;;;;;;9.00;8.25;;;;;17.61;71.83;100790.28;5073122;27;45653;-71
2021/07/30 01:59:26;;;;;;;;;10.00;9.00;;;;;17.58;71.61;100799.31;5074037;27;45405;-71
2021/07/30 02:01:52;;;;;;;;;8.25;7.25;;;;;17.58;71.66;100801.97;5073460;28;45455;-71
2021/07/30 02:04:18;;;;;;;;;8.75;7.25;;;;;17.56;71.53;100801.25;5071077;28;47002;-71
2021/07/30 02:06:44;;;;;;;;;6.50;6.50;;;;;17.54;71.83;100800.53;5072598;28;45427;-71
2021/07/30 02:09:09;;;;;;;;;8.25;8.25;;;;;17.53;72.37;100801.44;5074526;27;45414;-71
2021/07/30 02:11:35;;;;;;;;;10.00;8.00;;;;;17.54;72.39;100799.63;5071169;27;45388;-71
2021/07/30 02:14:18;;;;;;;;;9.50;7.50;;;;;17.50;72.75;100790.22;5073457;28;55547;-71
2021/07/30 02:16:46;;;;;;;;;9.00;9.00;;;;;17.52;72.60;100794.44;5074304;27;45532;-71
2021/07/30 02:19:12;;;;;;;;;8.50;7.25;;;;;17.52;72.85;100796.25;5073833;27;45434;-71
2021/07/30 02:21:38;;;;;;;;;8.00;7.50;;;;;17.45;72.75;100788.72;5074405;27;45759;-71
2021/07/30 02:24:04;;;;;;;;;8.25;7.75;;;;;17.47;72.74;100788.59;5072645;27;45397;-71
2021/07/30 02:26:29;;;;;;;;;7.75;7.00;;;;;17.46;72.57;100787.75;5073688;27;45437;-71
2021/07/30 02:28:55;;;;;;;;;8.75;7.75;;;;;17.46;72.84;100789.56;5090454;27;47256;-71
2021/07/30 02:31:21;;;;;;;;;7.75;6.00;;;;;17.42;72.61;100785.44;5072489;28;45674;-71
2021/07/30 02:33:46;;;;;;;;;9.00;7.25;;;;;17.43;72.31;100785.31;5074802;27;45463;-71
2021/07/30 02:36:12;;;;;;;;;11.25;9.00;;;;;17.43;72.86;100789.78;5072911;27;45783;-71
2021/07/30 02:38:37;;;;;;;;;7.25;6.75;;;;;17.37;72.95;100775.13;5072835;27;50021;-71
2021/07/30 02:41:02;;;;;;;;;9.00;8.00;;;;;17.38;72.43;100782.16;5073881;27;45548;-71
2021/07/30 02:43:28;;;;;;;;;9.00;7.00;;;;;17.41;72.62;100781.91;5073377;28;46918;-70
2021/07/30 02:45:53;;;;;;;;;7.50;6.25;;;;;17.40;72.21;100777.56;5073525;27;45306;-71
2021/07/30 02:48:18;;;;;;;;;9.25;7.75;;;;;17.36;72.62;100769.94;5075747;27;45576;-71
2021/07/30 02:50:44;;;;;;;;;7.75;7.50;;;;;17.37;72.23;100779.59;5071811;27;45633;-72
2021/07/30 02:53:09;;;;;;;;;6.75;6.50;;;;;17.35;72.61;100771.72;5073085;27;45448;-71
2021/07/30 02:55:34;;;;;;;;;9.25;9.25;;;;;17.32;72.13;100766.63;5069801;28;45330;-71
2021/07/30 02:57:59;;;;;;;;;7.75;7.50;;;;;17.33;72.15;100764.81;5069656;27;54368;-71
2021/07/30 03:00:25;;;;;;;;;10.00;8.75;;;;;17.32;72.65;100766.63;5074610;28;58300;-71
2021/07/30 03:02:50;;;;;;;;;7.00;7.00;;;;;17.31;72.41;100761.44;5071294;28;58203;-71
2021/07/30 03:05:15;;;;;;;;;9.00;7.75;;;;;17.33;72.29;100760.38;5073839;27;45583;-71
2021/07/30 03:07:41;;;;;;;;;11.00;10.00;;;;;17.28;72.20;100751.88;5072601;27;46297;-72
2021/07/30 03:10:06;;;;;;;;;8.75;7.00;;;;;17.30;72.67;100749.13;5071634;28;45546;-71
2021/07/30 03:12:32;;;;;;;;;11.00;8.00;;;;;17.31;72.12;100753.47;5075298;27;45508;-71
2021/07/30 03:14:57;;;;;;;;;8.25;7.00;;;;;17.32;72.53;100752.50;5072883;27;45470;-71
2021/07/30 03:17:22;;;;;;;;;1.25;0.00;;;;;17.30;72.15;100738.50;5072699;28;63632;-71
2021/07/30 03:19:47;;;;;;;;;8.50;7.00;;;;;17.37;71.91;100747.72;5072750;28;45748;-71
2021/07/30 03:22:13;;;;;;;;;11.00;6.50;;;;;17.39;71.72;100737.84;5072682;27;48461;-71
2021/07/30 03:24:38;;;;;;;;;10.00;7.75;;;;;17.39;71.69;100738.69;5074420;28;45512;-71
2021/07/30 03:27:06;;;;;;;;;7.50;7.50;;;;;17.46;71.33;100753.22;5073408;27;45512;-71
2021/07/30 03:29:32;;;;;;;;;8.25;6.75;;;;;17.46;71.62;100731.97;5071872;27;45770;-71
2021/07/30 03:31:57;;;;;;;;;8.00;6.00;;;;;17.49;71.74;100741.53;5072962;28;45596;-71
2021/07/30 03:34:22;;;;;;;;;8.00;5.25;;;;;17.53;71.36;100744.81;5075555;27;52849;-71
2021/07/30 03:36:48;;;;;;;;;7.00;7.00;;;;;17.59;70.95;100747.00;5077110;27;46410;-71
2021/07/30 03:39:13;;;;;;;;;8.00;7.00;;;;;17.63;70.50;100748.50;5077282;27;60749;-71
2021/07/30 03:41:39;;;;;;;;;8.25;8.25;;;;;17.68;70.40;100749.00;5076341;27;45482;-71
2021/07/30 03:44:04;;;;;;;;;9.50;7.25;;;;;17.70;70.52;100737.34;5076337;27;45457;-71
2021/07/30 03:46:30;;;;;;;;;7.75;7.25;;;;;17.75;70.25;100742.34;5076213;27;45458;-71
2021/07/30 03:48:55;;;;;;;;;11.50;8.00;;;;;17.76;70.13;100729.91;5075519;27;45441;-70
2021/07/30 03:51:20;;;;;;;;;11.25;10.25;;;;;17.80;69.98;100742.88;5076647;27;52984;-71
2021/07/30 03:53:46;;;;;;;;;7.00;6.50;;;;;17.78;69.91;100747.41;5076107;28;45236;-71
2021/07/30 03:56:16;;;;;;;;;8.75;6.50;;;;;17.75;70.07;100742.34;5074859;28;48094;-71
2021/07/30 03:58:42;;;;;;;;;8.00;7.75;;;;;17.71;70.13;100740.84;5073294;28;45582;-71
2021/07/30 04:01:08;;;;;;;;;8.00;8.00;;;;;17.63;69.72;100732.56;5076199;27;45311;-71
2021/07/30 04:03:34;;;;;;;;;10.50;8.00;;;;;17.68;70.09;100743.69;5077810;27;45667;-71
2021/07/30 04:06:03;;;;;;;;;12.50;7.75;;;;;17.73;70.45;100746.91;5074120;27;47621;-71
2021/07/30 04:08:28;;;;;;;;;9.25;9.00;;;;;17.74;70.08;100735.31;5074430;27;45681;-71
2021/07/30 04:10:54;;;;;;;;;10.75;8.25;;;;;17.81;69.93;100741.06;5076017;27;45520;-71
2021/07/30 04:13:19;;;;;;;;;8.25;8.00;;;;;17.82;69.57;100735.59;5076289;28;45531;-71
2021/07/30 04:15:45;;;;;;;;;11.00;8.00;;;;;17.87;69.57;100744.09;5076486;27;45541;-71
2021/07/30 04:18:10;;;;;;;;;7.00;6.25;;;;;17.79;69.30;100719.88;5076277;27;56944;-71
2021/07/30 04:20:38;;;;;;;;;8.50;7.25;;;;;17.86;69.71;100741.56;5075624;28;45356;-71
2021/07/30 04:23:03;;;;;;;;;7.50;7.50;;;;;17.86;69.27;100738.91;5075717;27;45397;-71
2021/07/30 04:25:29;;;;;;;;;7.00;7.00;;;;;17.84;70.02;100732.84;5075185;27;59173;-71
2021/07/30 04:27:54;;;;;;;;;9.50;7.00;;;;;17.91;69.35;100744.72;5076167;28;48560;-71
2021/07/30 04:30:21;;;;;;;;;9.00;8.00;;;;;17.89;69.87;100736.84;5075582;28;45297;-71
2021/07/30 04:32:46;;;;;;;;;10.50;9.25;;;;;17.89;69.92;100730.69;5075092;27;45516;-71
2021/07/30 04:35:12;;;;;;;;;7.00;7.00;;;;;17.90;69.42;100735.88;5075367;27;45916;-71
2021/07/30 04:37:37;;;;;;;;;7.75;6.75;;;;;17.88;69.38;100729.84;5075701;27;45472;-71
2021/07/30 04:40:03;;;;;;;;;11.50;8.00;;;;;17.87;69.69;100738.78;5075759;27;45366;-71
2021/07/30 04:42:28;;;;;;;;;11.25;9.75;;;;;17.84;69.96;100738.16;5077441;27;45462;-71
2021/07/30 04:44:54;;;;;;;;;8.75;8.50;;;;;17.86;69.90;100738.91;5074192;27;59565;-71
2021/07/30 04:47:19;;;;;;;;;13.50;7.50;;;;;17.87;69.49;100744.09;5072781;27;58334;-71
2021/07/30 04:49:44;;;;;;;;;7.25;6.00;;;;;17.82;69.43;100746.25;5075203;27;45422;-71
2021/07/30 04:52:09;;;;;;;;;9.00;5.25;;;;;17.74;69.58;100743.28;5075090;28;52526;-71
2021/07/30 04:54:35;;;;;;;;;10.50;9.50;;;;;17.77;69.79;100748.38;5077142;27;46228;-71
2021/07/30 04:57:00;;;;;;;;;9.75;9.75;;;;;17.72;70.05;100745.19;5073496;27;56168;-71
2021/07/30 04:59:25;;;;;;;;;9.50;8.00;;;;;17.73;70.07;100745.09;5075263;27;45386;-71
2021/07/30 05:01:51;;;;;;;;;9.75;9.00;;;;;17.72;69.72;100750.50;5073201;28;50012;-71
2021/07/30 05:04:18;;;;;;;;;8.50;8.00;;;;;17.71;70.27;100746.16;5074621;28;46709;-70
2021/07/30 05:06:43;;;;;;;;;7.00;7.00;;;;;17.66;70.25;100735.84;5075941;27;45422;-71
2021/07/30 05:09:09;;;;;;;;;9.75;9.25;;;;;17.67;69.92;100752.63;5074994;27;45284;-71
2021/07/30 05:11:34;;;;;;;;;9.25;9.25;;;;;17.66;70.28;100735.00;5075061;27;45284;-72
2021/07/30 05:13:59;;;;;;;;;9.25;7.75;;;;;17.66;69.86;100741.16;5074821;27;46392;-71
2021/07/30 05:16:24;;;;;;;;;9.50;8.25;;;;;17.70;70.44;100741.81;5074268;28;45370;-71
2021/07/30 05:18:50;;;;;;;;;12.00;9.75;;;;;17.74;69.98;100741.47;5075443;28;45436;-71
2021/07/30 05:21:15;;;;;;;;;11.75;9.00;;;;;17.77;69.47;100743.06;5074325;27;45439;-71
2021/07/30 05:23:42;;;;;;;;;12.00;8.25;;;;;17.82;69.58;100745.41;5074626;27;46352;-71
2021/07/30 05:26:07;;;;;;;;;11.75;9.00;;;;;17.89;69.51;100738.66;5073382;27;45898;-71
2021/07/30 05:28:34;;;;;;;;;10.25;9.00;;;;;17.92;69.75;100730.47;5074676;28;45606;-71
2021/07/30 05:31:00;;;;;;;;;7.25;7.25;;;;;18.04;69.29;100740.19;5074484;27;45361;-71
2021/07/30 05:33:27;;;;;;;;;9.00;7.25;;;;;18.13;69.37;100747.50;5076478;27;46439;-71
2021/07/30 05:35:53;;;;;;;;;7.25;7.25;;;;;18.14;69.38;100751.84;5074516;27;45434;-71
2021/07/30 05:38:19;;;;;;;;;9.00;8.00;;;;;18.21;69.17;100749.56;5074566;27;45320;-71
2021/07/30 05:40:45;;;;;;;;;8.50;8.50;;;;;18.27;68.89;100743.81;5074549;27;45517;-71
2021/07/30 05:43:10;;;;;;;;;8.75;7.00;;;;;18.31;68.96;100737.28;5074397;28;46507;-71
2021/07/30 05:45:36;;;;;;;;;9.50;8.00;;;;;18.40;68.58;100730.41;5076095;27;45225;-71
2021/07/30 05:48:01;;;;;;;;;9.50;8.25;;;;;18.51;68.50;100739.28;5074055;27;45671;-71
2021/07/30 05:50:27;;;;;;;;;9.00;8.00;;;;;18.63;68.48;100736.66;5074617;27;45481;-71
2021/07/30 05:52:52;;;;;;;;;8.25;8.25;;;;;18.74;68.08;100736.69;5074130;27;46543;-71
2021/07/30 05:55:18;;;;;;;;;9.50;8.75;;;;;18.86;67.50;100738.44;5070904;27;45327;-71
2021/07/30 05:57:43;;;;;;;;;9.00;8.50;;;;;18.98;66.79;100732.13;5072617;28;45449;-71
2021/07/30 06:00:09;;;;;;;;;9.75;8.75;;;;;19.12;66.60;100731.06;5072916;27;45480;-71
2021/07/30 06:02:34;;;;;;;;;6.75;6.75;;;;;19.28;66.75;100736.03;5069345;28;46318;-71
2021/07/30 06:05:00;;;;;;;;;10.75;8.25;;;;;19.41;65.99;100733.22;5072568;27;45418;-71
2021/07/30 06:07:25;;;;;;;;;11.00;9.00;;;;;19.48;65.48;100724.63;5074385;27;45487;-71
2021/07/30 06:09:50;;;;;;;;;14.00;8.25;;;;;19.50;65.42;100719.16;5073922;28;53377;-71
2021/07/30 06:12:15;;;;;;;;;9.00;8.25;;;;;19.58;65.83;100738.06;5075684;28;51598;-71
2021/07/30 06:14:41;;;;;;;;;6.00;6.00;;;;;19.64;65.36;100731.41;5073255;28;45388;-71
2021/07/30 06:17:06;;;;;;;;;10.00;9.00;;;;;19.66;65.27;100732.97;5074282;28;45609;-71
2021/07/30 06:19:32;;;;;;;;;7.50;5.75;;;;;19.74;64.98;100735.03;5074131;28;45381;-71
2021/07/30 06:21:58;;;;;;;;;9.00;7.00;;;;;19.68;63.99;100720.38;5074215;27;45420;-71
2021/07/30 06:24:24;;;;;;;;;10.25;6.75;;;;;19.63;64.45;100709.25;5075820;27;45813;-71
2021/07/30 06:26:49;;;;;;;;;10.00;7.00;;;;;19.69;64.47;100716.75;5072165;27;45492;-71
2021/07/30 06:29:14;;;;;;;;;6.75;5.50;;;;;19.69;64.54;100714.06;5073144;28;45369;-71
2021/07/30 06:31:41;;;;;;;;;4.75;4.00;;;;;19.69;64.70;100705.22;5073294;27;46386;-71
2021/07/30 06:34:07;;;;;;;;;7.25;7.25;;;;;19.78;64.30;100717.78;5073871;27;45541;-71
2021/07/30 06:36:33;;;;;;;;;5.00;5.00;;;;;19.81;64.76;100717.56;5075715;27;45440;-71
2021/07/30 06:38:58;;;;;;;;;7.75;6.75;;;;;19.85;64.47;100711.00;5071701;27;45402;-71
2021/07/30 06:41:23;;;;;;;;;6.00;5.75;;;;;19.88;64.77;100713.41;5073331;27;45411;-71
2021/07/30 06:43:49;;;;;;;;;7.50;6.00;;;;;19.90;64.08;100705.28;5072031;27;45576;-71
2021/07/30 06:46:15;;;;;;;;;7.50;5.25;;;;;20.01;64.67;100706.09;5073546;27;45388;-72
2021/07/30 06:48:40;;;;;;;;;5.00;5.00;;;;;20.27;64.15;100706.56;5074442;27;50709;-71
2021/07/30 06:51:09;;;;;;;;;6.00;6.00;;;;;20.42;63.90;100704.44;5073904;27;46143;-71
2021/07/30 06:53:34;;;;;;;;;11.00;6.25;;;;;20.51;63.49;100705.50;5073295;27;45338;-71
2021/07/30 06:55:59;;;;;;;;;9.75;6.00;;;;;20.68;63.04;100704.09;5073337;28;45480;-71
2021/07/30 06:58:25;;;;;;;;;6.75;5.75;;;;;20.80;62.97;100692.34;5073387;27;45389;-71
2021/07/30 07:00:50;;;;;;;;;7.25;5.75;;;;;21.10;62.42;100710.19;5073506;27;46286;-71
2021/07/30 07:03:15;;;;;;;;;6.00;6.00;;;;;21.47;61.71;100701.63;5075194;27;45386;-71
2021/07/30 07:05:41;;;;;;;;;7.00;4.75;;;;;21.80;61.10;100711.09;5071736;27;47993;-72
2021/07/30 07:08:06;;;;;;;;;7.50;7.00;;;;;22.04;60.62;100710.72;5072225;28;45637;-72
2021/07/30 07:10:31;;;;;;;;;8.25;4.75;;;;;22.24;60.82;100714.25;5072991;27;45380;-71
2021/07/30 07:12:57;;;;;;;;;3.00;3.00;;;;;22.33;59.85;100714.25;5072772;27;45375;-71
2021/07/30 07:15:22;;;;;;;;;7.50;6.50;;;;;22.50;60.08;100711.81;5090393;27;52945;-71
2021/07/30 07:17:47;;;;;;;;;5.50;4.25;;;;;22.75;59.32;100723.75;5073197;27;45494;-71
2021/07/30 07:20:13;;;;;;;;;5.75;5.50;;;;;22.80;58.67;100716.13;5072833;27;59337;-71
2021/07/30 07:22:38;;;;;;;;;5.50;4.75;;;;;22.81;59.11;100712.47;5071704;27;45365;-72
2021/07/30 07:25:04;;;;;;;;;6.75;5.00;;;;;22.80;58.52;100713.47;5073035;27;45386;-71
2021/07/30 07:27:29;;;;;;;;;5.50;5.50;;;;;22.91;58.80;100710.63;5074752;27;45673;-71
2021/07/30 07:29:54;;;;;;;;;7.00;4.25;;;;;23.07;57.83;100700.13;5072709;27;54588;-72
2021/07/30 07:32:20;;;;;;;;;4.25;4.00;;;;;23.18;57.68;100710.69;5072773;28;45312;-71
2021/07/30 07:34:45;;;;;;;;;4.00;3.75;;;;;23.25;57.55;100697.53;5072899;28;45515;-71
2021/07/30 07:37:10;;;;;;;;;6.75;5.00;;;;;23.28;57.47;100705.25;5072867;28;45278;-71
2021/07/30 07:39:36;;;;;;;;;7.00;5.00;;;;;23.21;57.53;100703.34;5072871;28;45990;-71
2021/07/30 07:42:01;;;;;;;;;8.50;6.50;;;;;23.26;58.18;100698.38;5072519;27;45463;-71
2021/07/30 07:44:27;;;;;;;;;7.00;4.00;;;;;23.28;57.14;100697.22;5071491;27;45384;-71
2021/07/30 07:46:52;;;;;;;;;5.00;4.00;;;;;23.37;57.58;100687.44;5072145;28;53047;-71
2021/07/30 07:49:18;;;;;;;;;5.00;5.00;;;;;23.41;57.17;100680.78;5072422;27;46415;-71
2021/07/30 07:51:43;;;;;;;;;8.50;5.00;;;;;23.50;57.02;100689.78;5073763;27;45475;-71
2021/07/30 07:54:09;;;;;;;;;6.00;5.50;;;;;23.54;57.56;100694.66;5073695;28;45370;-71
2021/07/30 07:56:34;;;;;;;;;6.00;5.25;;;;;23.72;57.34;100694.75;5072431;28;45531;-72
2021/07/30 07:59:01;;;;;;;;;5.00;4.00;;;;;23.94;56.41;100691.59;5068003;28;48114;-71
2021/07/30 08:01:26;;;;;;;;;6.25;5.00;;;;;24.14;56.51;100689.59;5071374;27;45385;-71
2021/07/30 08:03:52;;;;;;;;;3.75;3.75;;;;;24.44;56.12;100683.00;5072679;27;45967;-71
2021/07/30 08:06:18;;;;;;;;;5.00;5.00;;;;;24.71;55.02;100679.31;5074722;27;45365;-72
2021/07/30 08:08:44;;;;;;;;;6.25;5.00;;;;;24.95;55.40;100675.03;5071587;27;45800;-71
2021/07/30 08:11:10;;;;;;;;;8.50;7.00;;;;;24.92;53.67;100675.38;5072037;28;45911;-71
2021/07/30 08:13:35;;;;;;;;;3.25;2.50;;;;;24.72;54.35;100682.81;5072447;28;45326;-71
2021/07/30 08:16:01;;;;;;;;;5.00;4.00;;;;;24.75;55.12;100679.84;5088666;27;45485;-71
2021/07/30 08:18:26;;;;;;;;;4.50;3.00;;;;;25.09;54.35;100679.03;5074239;27;45500;-71
2021/07/30 08:20:51;;;;;;;;;8.25;4.00;;;;;25.69;54.38;100674.34;5074584;27;45475;-71
2021/07/30 08:23:17;;;;;;;;;5.25;4.00;;;;;25.96;53.33;100672.38;5076160;28;45252;-72
2021/07/30 08:25:42;;;;;;;;;5.00;3.00;;;;;25.85;52.54;100673.56;5075137;28;45505;-71
2021/07/30 08:28:07;;;;;;;;;3.75;3.00;;;;;25.81;52.62;100674.06;5075577;27;45297;-71
2021/07/30 08:30:33;;;;;;;;;5.25;3.75;;;;;25.61;52.85;100671.63;5077819;27;45419;-72
2021/07/30 08:32:58;;;;;;;;;5.00;4.25;;;;;25.51;53.31;100674.47;5075088;27;53824;-71
2021/07/30 08:35:23;;;;;;;;;5.00;3.25;;;;;25.35;53.44;100671.72;5075543;28;45401;-71
2021/07/30 08:37:49;;;;;;;;;4.25;4.25;;;;;25.16;53.72;100674.66;5075083;28;45409;-71
2021/07/30 08:40:14;;;;;;;;;6.25;4.75;;;;;24.98;53.83;100664.81;5073610;27;45408;-71
2021/07/30 08:42:40;;;;;;;;;5.75;3.50;;;;;24.89;54.28;100670.31;5076979;27;45271;-72
2021/07/30 08:45:07;;;;;;;;;6.25;4.50;;;;;24.90;54.22;100666.63;5076341;27;45457;-72
2021/07/30 08:47:32;;;;;;;;;4.00;3.50;;;;;24.65;54.23;100671.88;5075060;27;45372;-71
2021/07/30 08:49:58;;;;;;;;;6.00;4.00;;;;;24.28;54.50;100674.78;5075157;28;45471;-71
2021/07/30 08:52:31;;;;;;;;;4.25;3.50;;;;;23.85;55.29;100672.88;5075840;27;45385;-72
2021/07/30 08:54:57;;;;;;;;;4.00;4.00;;;;;23.52;56.27;100677.03;5073637;28;45583;-71
2021/07/30 08:57:23;;;;;;;;;7.00;4.00;;;;;23.41;56.38;100670.06;5076978;27;45396;-71
2021/07/30 08:59:48;;;;;;;;;4.25;4.25;;;;;23.46;57.64;100680.34;5070585;28;46291;-71
2021/07/30 09:02:13;;;;;;;;;4.50;4.50;;;;;23.40;57.80;100665.69;5073423;28;48932;-71
2021/07/30 09:04:39;;;;;;;;;4.25;3.75;;;;;23.31;57.84;100675.47;5073755;27;45544;-71
2021/07/30 09:07:04;;;;;;;;;3.00;3.00;;;;;23.13;57.86;100670.06;5057740;28;53212;-71
2021/07/30 09:09:33;;;;;;;;;5.50;3.25;;;;;23.13;58.33;100671.91;5075157;27;45393;-71
2021/07/30 09:12:00;;;;;;;;;4.50;4.00;;;;;23.17;58.13;100671.44;5075132;27;45407;-71
2021/07/30 09:14:37;;;;;;;;;3.25;3.25;;;;;23.15;58.46;100677.97;5074936;27;45445;-71
2021/07/30 09:17:03;;;;;;;;;6.75;4.00;;;;;23.10;58.21;100681.09;5074750;27;45540;-72
2021/07/30 09:19:29;;;;;;;;;4.50;3.50;;;;;22.94;58.74;100667.47;5073671;27;45610;-71
2021/07/30 09:22:04;;;;;;;;;5.75;4.25;;;;;22.93;59.33;100665.78;5073880;27;45715;-71
2021/07/30 09:24:37;;;;;;;;;2.75;1.50;;;;;23.09;59.18;100667.84;5076705;27;45385;-71
2021/07/30 09:27:04;;;;;;;;;5.00;4.00;;;;;23.19;59.55;100674.00;5075067;27;47761;-71
2021/07/30 09:29:32;;;;;;;;;6.00;4.00;;;;;23.33;59.34;100667.28;5074624;27;45654;-71
2021/07/30 09:32:03;;;;;;;;;6.00;5.25;;;;;23.51;58.90;100668.16;5074357;27;45408;-71
2021/07/30 09:34:33;;;;;;;;;4.25;4.00;;;;;23.54;58.42;100659.78;5071518;27;45330;-71
2021/07/30 09:37:06;;;;;;;;;4.75;3.00;;;;;23.57;58.81;100654.13;5073424;27;45624;-71
2021/07/30 09:39:37;;;;;;;;;3.75;3.75;;;;;23.58;58.83;100663.03;5076790;27;45790;-72
2021/07/30 09:42:11;;;;;;;;;3.50;3.00;;;;;23.55;58.57;100661.50;5075160;27;45365;-71
2021/07/30 09:44:53;;;;;;;;;3.00;3.00;;;;;23.52;58.94;100660.94;5073934;27;45552;-71
2021/07/30 09:47:24;;;;;;;;;3.25;3.25;;;;;23.38;58.92;100665.81;5074535;27;45684;-71
2021/07/30 09:50:03;;;;;;;;;3.50;3.25;;;;;23.44;59.53;100654.50;5073108;27;45767;-72
2021/07/30 09:52:32;;;;;;;;;3.75;3.50;;;;;23.61;59.18;100660.88;5073447;27;45444;-71
2021/07/30 09:55:00;;;;;;;;;5.00;4.00;;;;;23.93;59.93;100646.97;5072642;27;45596;-71
2021/07/30 09:57:26;;;;;;;;;3.75;2.75;;;;;24.43;58.54;100657.13;5076174;27;46510;-71
2021/07/30 09:59:56;;;;;;;;;2.75;2.75;;;;;24.83;58.06;100660.22;5072907;27;45549;-72
2021/07/30 10:02:23;;;;;;;;;3.75;3.75;;;;;25.10;57.02;100656.50;5074246;27;45398;-71
2021/07/30 10:04:50;;;;;;;;;4.00;4.00;;;;;25.37;56.93;100656.28;5074150;27;45450;-71
2021/07/30 10:07:27;;;;;;;;;4.00;4.00;;;;;25.80;55.74;100654.38;5073800;27;45495;-72
2021/07/30 10:09:58;;;;;;;;;3.00;3.00;;;;;26.08;54.47;100640.56;5072809;28;45343;-71
2021/07/30 10:12:24;;;;;;;;;5.00;4.00;;;;;26.05;53.97;100659.75;5076111;27;45722;-72
2021/07/30 10:14:51;;;;;;;;;3.00;3.00;;;;;26.29;54.79;100648.97;5074156;27;45333;-71
2021/07/30 10:17:26;;;;;;;;;4.00;2.75;;;;;26.34;53.08;100657.38;5073791;27;45406;-71
2021/07/30 10:19:53;;;;;;;;;5.75;5.75;;;;;26.28;53.16;100645.44;5072704;27;45902;-71
2021/07/30 10:22:19;;;;;;;;;4.25;3.00;;;;;26.10;53.38;100652.88;5073702;27;45378;-71
2021/07/30 10:24:52;;;;;;;;;4.25;4.00;;;;;26.01;54.02;100651.19;5075130;28;45437;-72
2021/07/30 10:27:20;;;;;;;;;5.50;3.50;;;;;25.79;53.37;100646.44;5073558;27;46133;-71
2021/07/30 10:30:08;;;;;;;;;4.00;4.00;;;;;25.51;54.12;100652.09;5073558;28;45369;-71
2021/07/30 10:32:51;;;;;;;;;3.25;3.00;;;;;25.63;54.31;100641.84;5074160;27;45362;-71
2021/07/30 10:35:28;;;;;;;;;4.75;4.75;;;;;26.17;54.54;100637.72;5073569;28;45440;-71
2021/07/30 10:38:10;;;;;;;;;4.25;3.75;;;;;26.78;52.95;100641.66;5071716;27;46473;-71
2021/07/30 10:40:35;;;;;;;;;3.00;3.00;;;;;27.01;52.04;100647.13;5073673;27;45322;-71
2021/07/30 10:43:05;;;;;;;;;3.00;3.00;;;;;27.03;50.77;100626.22;5072755;27;45410;-71
2021/07/30 10:45:32;;;;;;;;;3.00;3.00;;;;;27.34;51.33;100627.28;5075548;27;45315;-71
2021/07/30 10:48:15;;;;;;;;;5.00;4.00;;;;;27.64;50.72;100612.91;5073045;27;46261;-71
2021/07/30 10:50:56;;;;;;;;;5.00;5.00;;;;;27.51;50.30;100621.63;5073037;28;45426;-72
2021/07/30 10:53:30;;;;;;;;;2.75;2.75;;;;;27.74;49.53;100620.81;5073498;28;45448;-72
2021/07/30 10:56:22;;;;;;;;;4.75;3.00;;;;;27.73;50.45;100616.44;5073301;27;45449;-72
2021/07/30 10:58:50;;;;;;;;;3.00;3.00;;;;;27.72;49.05;100617.44;5010925;28;45505;-71
2021/07/30 11:01:21;;;;;;;;;3.00;2.50;;;;;27.51;48.09;100627.03;5009462;28;45569;-71
2021/07/30 11:03:49;;;;;;;;;2.50;1.25;;;;;27.63;48.79;100608.53;5011727;28;45462;-71
2021/07/30 11:06:28;;;;;;;;;2.00;2.00;;;;;27.89;47.65;100619.00;5010317;28;45650;-71
2021/07/30 11:08:59;;;;;;;;;2.25;2.25;;;;;27.88;46.75;100622.72;5007491;28;45613;-71
2021/07/30 11:11:50;;;;;;;;;4.00;4.00;;;;;27.87;47.90;100612.91;5009601;28;46021;-72
2021/07/30 11:14:25;;;;;;;;;4.25;2.25;;;;;28.32;47.78;100617.41;5009339;28;45407;-71
2021/07/30 11:16:58;;;;;;;;;2.75;2.00;;;;;28.68;46.65;100627.53;5010751;28;45475;-71
2021/07/30 11:19:24;;;;;;;;;3.00;3.00;;;;;28.61;46.25;100615.81;5008864;28;45559;-71
2021/07/30 11:21:51;;;;;;;;;4.00;3.00;;;;;28.30;45.17;100624.03;5011508;28;45825;-71
2021/07/30 11:24:17;;;;;;;;;1.25;1.25;;;;;27.98;45.11;100625.16;5012621;28;45528;-71